createdAt,value
2023-09-12T00:00:24.702Z,22.16
2023-09-12T00:02:51.541Z,22.14
2023-09-12T00:05:18.245Z,22.18
2023-09-12T00:07:44.811Z,22.18
2023-09-12T00:10:11.495Z,22.20
2023-09-12T00:12:38.139Z,22.14
2023-09-12T00:15:05.687Z,21.93
2023-09-12T00:17:32.389Z,22.01
2023-09-12T00:19:59.026Z,22.07
2023-09-12T00:22:25.520Z,21.95
2023-09-12T00:24:52.011Z,21.78
2023-09-12T00:27:18.550Z,21.93
2023-09-12T00:29:45.082Z,21.98
2023-09-12T00:32:11.578Z,21.98
2023-09-12T00:34:38.053Z,21.86
2023-09-12T00:37:05.428Z,21.84
2023-09-12T00:39:33.004Z,21.92
2023-09-12T00:41:59.627Z,21.83
2023-09-12T00:44:26.160Z,21.91
2023-09-12T00:46:53.990Z,21.75
2023-09-12T00:49:23.493Z,21.80
2023-09-12T00:51:50.794Z,21.75
2023-09-12T00:54:17.459Z,21.57
2023-09-12T00:56:44.002Z,21.47
2023-09-12T00:59:11.304Z,21.67
2023-09-12T01:01:37.928Z,21.63
2023-09-12T01:04:05.046Z,21.68
2023-09-12T01:06:34.941Z,21.59
2023-09-12T01:09:01.918Z,21.64
2023-09-12T01:11:29.466Z,21.48
2023-09-12T01:13:56.027Z,21.58
2023-09-12T01:16:22.650Z,21.47
2023-09-12T01:18:49.888Z,21.35
2023-09-12T01:21:37.876Z,21.45
2023-09-12T01:24:24.610Z,21.52
2023-09-12T01:27:28.506Z,21.46
2023-09-12T01:29:58.530Z,21.46
2023-09-12T01:32:25.130Z,21.38
2023-09-12T01:34:51.637Z,21.40
2023-09-12T01:37:18.281Z,21.32
2023-09-12T01:39:44.930Z,21.37
2023-09-12T01:42:16.175Z,21.32
2023-09-12T01:44:45.505Z,21.30
2023-09-12T01:47:12.798Z,21.38
2023-09-12T01:49:41.202Z,21.42
2023-09-12T01:52:08.425Z,21.31
2023-09-12T01:54:35.784Z,21.21
2023-09-12T01:57:02.844Z,21.32
2023-09-12T01:59:30.645Z,21.34
2023-09-12T02:01:57.163Z,21.26
2023-09-12T02:04:23.713Z,21.25
2023-09-12T02:06:50.211Z,21.14
2023-09-12T02:09:16.801Z,21.26
2023-09-12T02:11:43.279Z,21.21
2023-09-12T02:14:11.269Z,20.93
2023-09-12T02:16:43.379Z,20.98
2023-09-12T02:19:11.160Z,21.02
2023-09-12T02:21:38.604Z,20.91
2023-09-12T02:24:05.277Z,20.94
2023-09-12T02:26:36.973Z,20.85
2023-09-12T02:29:05.154Z,20.90
2023-09-12T02:31:31.804Z,20.97
2023-09-12T02:33:58.412Z,21.03
2023-09-12T02:36:25.069Z,21.01
2023-09-12T02:38:51.753Z,20.87
2023-09-12T02:41:18.292Z,20.96
2023-09-12T02:43:44.788Z,20.92
2023-09-12T02:46:11.306Z,20.94
2023-09-12T02:48:37.883Z,20.94
2023-09-12T02:51:04.400Z,20.80
2023-09-12T02:53:30.861Z,20.82
2023-09-12T02:55:57.406Z,20.71
2023-09-12T02:58:23.896Z,20.69
2023-09-12T03:00:55.644Z,20.74
2023-09-12T03:03:22.611Z,20.61
2023-09-12T03:05:58.476Z,20.60
2023-09-12T03:08:25.011Z,20.55
2023-09-12T03:10:58.343Z,20.62
2023-09-12T03:13:26.394Z,20.59
2023-09-12T03:15:53.320Z,20.60
2023-09-12T03:18:19.860Z,20.59
2023-09-12T03:20:49.197Z,20.48
2023-09-12T03:23:15.709Z,20.44
2023-09-12T03:25:42.235Z,20.49
2023-09-12T03:28:09.449Z,20.60
2023-09-12T03:30:37.374Z,20.66
2023-09-12T03:33:04.488Z,20.70
2023-09-12T03:35:34.618Z,20.65
2023-09-12T03:38:01.600Z,20.73
2023-09-12T03:40:31.789Z,20.76
2023-09-12T03:42:58.445Z,20.69
2023-09-12T03:45:25.689Z,20.52
2023-09-12T03:47:53.028Z,20.52
2023-09-12T03:50:22.418Z,20.46
2023-09-12T03:52:48.886Z,20.49
2023-09-12T03:55:15.501Z,20.20
2023-09-12T03:57:42.060Z,20.29
2023-09-12T04:00:10.048Z,20.13
2023-09-12T04:02:39.683Z,20.10
2023-09-12T04:05:06.544Z,20.28
2023-09-12T04:07:33.033Z,20.18
2023-09-12T04:10:02.254Z,20.19
2023-09-12T04:12:28.754Z,20.16
2023-09-12T04:14:56.201Z,20.08
2023-09-12T04:17:25.847Z,19.92
2023-09-12T04:19:54.354Z,19.75
2023-09-12T04:22:23.446Z,19.52
2023-09-12T04:24:50.244Z,19.65
2023-09-12T04:27:16.837Z,19.80
2023-09-12T04:29:43.347Z,19.96
2023-09-12T04:32:10.205Z,19.95
2023-09-12T04:34:36.824Z,20.01
2023-09-12T04:37:03.716Z,20.08
2023-09-12T04:41:57.522Z,20.05
2023-09-12T04:44:24.019Z,20.07
2023-09-12T04:46:53.579Z,20.08
2023-09-12T04:49:20.255Z,19.68
2023-09-12T04:51:46.789Z,19.66
2023-09-12T04:54:13.328Z,19.76
2023-09-12T04:56:39.876Z,19.72
2023-09-12T04:59:07.837Z,19.76
2023-09-12T05:01:34.502Z,19.59
2023-09-12T05:04:01.231Z,19.63
2023-09-12T05:06:27.866Z,19.55
2023-09-12T05:08:57.102Z,19.54
2023-09-12T05:11:24.921Z,19.44
2023-09-12T05:13:53.543Z,19.61
2023-09-12T05:16:20.498Z,19.61
2023-09-12T05:18:47.135Z,19.48
2023-09-12T05:21:13.704Z,19.57
2023-09-12T05:23:40.239Z,19.29
2023-09-12T05:26:07.488Z,19.26
2023-09-12T05:28:35.362Z,19.40
2023-09-12T05:31:04.710Z,19.44
2023-09-12T05:33:33.747Z,19.28
2023-09-12T05:36:00.602Z,19.36
2023-09-12T05:38:27.205Z,19.35
2023-09-12T05:40:54.130Z,19.19
2023-09-12T05:43:20.639Z,19.37
2023-09-12T05:45:47.137Z,19.46
2023-09-12T05:48:13.693Z,19.58
2023-09-12T05:50:40.246Z,19.60
2023-09-12T05:53:08.745Z,19.65
2023-09-12T05:55:35.215Z,19.71
2023-09-12T05:58:01.807Z,19.60
2023-09-12T06:00:28.326Z,19.65
2023-09-12T06:02:54.898Z,19.60
2023-09-12T06:05:21.472Z,19.40
2023-09-12T06:07:48.106Z,19.27
2023-09-12T06:10:14.627Z,19.31
2023-09-12T06:12:41.339Z,19.34
2023-09-12T06:15:08.188Z,19.17
2023-09-12T06:17:34.771Z,19.45
2023-09-12T06:20:01.367Z,19.93
2023-09-12T06:22:28.755Z,19.96
2023-09-12T06:24:56.479Z,20.18
2023-09-12T06:27:22.981Z,20.58
2023-09-12T06:29:50.656Z,20.77
2023-09-12T06:32:18.590Z,20.65
2023-09-12T06:34:45.262Z,20.67
2023-09-12T06:37:12.443Z,20.95
2023-09-12T06:39:39.071Z,20.87
2023-09-12T06:42:05.985Z,21.10
2023-09-12T06:44:32.475Z,21.17
2023-09-12T06:46:59.046Z,21.38
2023-09-12T06:49:25.522Z,21.36
2023-09-12T06:51:52.335Z,21.12
2023-09-12T06:54:19.029Z,21.06
2023-09-12T06:56:45.535Z,21.44
2023-09-12T06:59:12.409Z,21.84
2023-09-12T07:01:39.035Z,22.09
2023-09-12T07:04:05.810Z,22.10
2023-09-12T07:06:33.840Z,22.14
2023-09-12T07:09:00.777Z,22.37
2023-09-12T07:11:27.440Z,22.51
2023-09-12T07:13:54.074Z,22.54
2023-09-12T07:16:21.581Z,22.40
2023-09-12T07:18:51.722Z,22.49
2023-09-12T07:21:18.746Z,22.20
2023-09-12T07:23:45.762Z,22.14
2023-09-12T07:26:16.324Z,22.48
2023-09-12T07:28:42.879Z,22.86
2023-09-12T07:31:11.753Z,22.79
2023-09-12T07:33:38.444Z,22.69
2023-09-12T07:36:05.401Z,22.59
2023-09-12T07:38:39.219Z,22.94
2023-09-12T07:41:05.822Z,22.95
2023-09-12T07:43:32.342Z,23.21
2023-09-12T07:45:59.624Z,23.50
2023-09-12T07:48:26.376Z,23.70
2023-09-12T07:50:53.069Z,23.79
2023-09-12T07:53:19.752Z,23.56
2023-09-12T07:55:47.305Z,23.60
2023-09-12T07:58:15.180Z,23.92
2023-09-12T08:00:41.757Z,23.67
2023-09-12T08:03:08.900Z,23.62
2023-09-12T08:05:35.636Z,23.64
2023-09-12T08:08:02.207Z,23.75
2023-09-12T08:10:28.695Z,23.47
2023-09-12T08:12:55.255Z,23.73
2023-09-12T08:15:22.161Z,23.69
2023-09-12T08:17:53.114Z,23.99
2023-09-12T08:20:23.010Z,23.65
2023-09-12T08:22:51.136Z,23.77
2023-09-12T08:25:17.671Z,24.05
2023-09-12T08:27:44.949Z,24.13
2023-09-12T08:30:13.931Z,23.92
2023-09-12T08:32:44.855Z,23.73
2023-09-12T08:35:17.613Z,24.05
2023-09-12T08:37:44.541Z,24.14
2023-09-12T08:40:13.590Z,24.23
2023-09-12T08:42:41.929Z,24.36
2023-09-12T08:45:21.332Z,24.27
2023-09-12T08:47:52.908Z,24.16
2023-09-12T08:50:22.156Z,23.98
2023-09-12T08:53:05.326Z,24.02
2023-09-12T08:55:36.413Z,23.96
2023-09-12T08:58:07.624Z,23.88
2023-09-12T09:00:35.715Z,24.09
2023-09-12T09:03:03.881Z,24.10
2023-09-12T09:05:31.100Z,23.93
2023-09-12T09:07:58.353Z,23.98
2023-09-12T09:10:38.362Z,23.93
2023-09-12T09:13:13.867Z,24.15
2023-09-12T09:15:43.006Z,24.16
2023-09-12T09:18:12.267Z,24.16
2023-09-12T09:20:39.634Z,24.34
2023-09-12T09:23:10.122Z,24.32
2023-09-12T09:25:39.405Z,24.40
2023-09-12T09:28:06.944Z,24.49
2023-09-12T09:30:47.828Z,24.81
2023-09-12T09:33:16.570Z,25.11
2023-09-12T09:35:44.226Z,24.99
2023-09-12T09:38:10.906Z,25.16
2023-09-12T09:40:37.857Z,25.49
2023-09-12T09:43:04.789Z,25.14
2023-09-12T09:45:32.482Z,25.62
2023-09-12T09:48:08.057Z,25.26
2023-09-12T09:50:38.116Z,25.48
2023-09-12T09:53:09.729Z,25.46
2023-09-12T09:55:36.440Z,25.65
2023-09-12T09:58:06.686Z,25.60
2023-09-12T10:00:35.645Z,25.44
2023-09-12T10:03:05.618Z,25.47
2023-09-12T10:05:33.586Z,25.58
2023-09-12T10:08:01.966Z,25.59
2023-09-12T10:10:30.455Z,25.91
2023-09-12T10:12:58.970Z,25.94
2023-09-12T10:15:29.888Z,26.24
2023-09-12T10:18:13.822Z,25.93
2023-09-12T10:20:54.352Z,26.06
2023-09-12T10:23:25.418Z,26.42
2023-09-12T10:25:52.277Z,26.35
2023-09-12T10:28:20.233Z,26.58
2023-09-12T10:30:47.246Z,26.38
2023-09-12T10:33:14.517Z,26.48
2023-09-12T10:35:41.384Z,26.45
2023-09-12T10:38:08.792Z,26.31
2023-09-12T10:40:39.813Z,26.61
2023-09-12T10:43:10.248Z,26.42
2023-09-12T10:45:40.257Z,26.62
2023-09-12T10:48:07.147Z,26.89
2023-09-12T10:50:33.798Z,26.81
2023-09-12T10:53:15.409Z,26.88
2023-09-12T10:55:42.939Z,26.50
2023-09-12T10:58:11.658Z,26.75
2023-09-12T11:00:40.137Z,27.11
2023-09-12T11:03:29.188Z,27.36
2023-09-12T11:05:57.091Z,27.30
2023-09-12T11:08:24.918Z,27.50
2023-09-12T11:11:21.068Z,27.56
2023-09-12T11:13:48.287Z,27.06
2023-09-12T11:16:19.191Z,27.47
2023-09-12T11:19:27.247Z,27.47
2023-09-12T11:21:54.980Z,27.73
2023-09-12T11:24:22.373Z,28.06
2023-09-12T11:27:02.649Z,27.79
2023-09-12T11:29:37.403Z,27.60
2023-09-12T11:32:04.808Z,27.76
2023-09-12T11:34:42.232Z,28.06
2023-09-12T11:37:09.401Z,28.45
2023-09-12T11:39:38.044Z,28.73
2023-09-12T11:42:05.536Z,28.60
2023-09-12T11:44:33.355Z,28.63
2023-09-12T11:47:04.283Z,28.84
2023-09-12T11:49:41.086Z,28.80
2023-09-12T11:52:15.041Z,28.87
2023-09-12T11:54:45.143Z,28.98
2023-09-12T11:57:14.988Z,29.14
2023-09-12T11:59:44.290Z,29.19
2023-09-12T12:02:11.341Z,29.08
2023-09-12T12:04:38.659Z,29.03
2023-09-12T12:07:05.515Z,29.23
2023-09-12T12:09:34.329Z,29.27
2023-09-12T12:12:12.152Z,29.25
2023-09-12T12:14:40.543Z,29.42
2023-09-12T12:17:11.093Z,29.31
2023-09-12T12:19:38.241Z,29.31
2023-09-12T12:22:07.115Z,29.26
2023-09-12T12:24:52.407Z,29.26
2023-09-12T12:27:19.068Z,29.35
2023-09-12T12:29:46.685Z,29.49
2023-09-12T12:32:16.839Z,29.56
2023-09-12T12:35:24.047Z,29.60
2023-09-12T12:37:37.487Z,29.63
2023-09-12T12:40:07.546Z,29.61
2023-09-12T12:42:46.890Z,29.74
2023-09-12T12:45:22.854Z,29.49
2023-09-12T12:47:53.407Z,29.49
2023-09-12T12:50:23.785Z,29.31
2023-09-12T12:52:50.454Z,29.49
2023-09-12T12:55:20.872Z,29.59
2023-09-12T12:57:49.144Z,29.57
2023-09-12T13:00:17.060Z,29.78
2023-09-12T13:02:44.353Z,30.02
2023-09-12T13:05:23.331Z,30.01
2023-09-12T13:07:51.165Z,29.90
2023-09-12T13:10:17.893Z,30.06
2023-09-12T13:12:48.401Z,29.99
2023-09-12T13:15:15.501Z,30.10
2023-09-12T13:17:42.972Z,30.09
2023-09-12T13:20:10.145Z,30.17
2023-09-12T13:22:37.185Z,29.96
2023-09-12T13:25:03.930Z,29.95
2023-09-12T13:27:30.605Z,30.13
2023-09-12T13:29:58.855Z,30.01
2023-09-12T13:32:27.093Z,29.85
2023-09-12T13:34:54.223Z,30.01
2023-09-12T13:37:22.294Z,30.04
2023-09-12T13:39:50.520Z,30.16
2023-09-12T13:42:21.066Z,30.16
2023-09-12T13:44:48.485Z,30.36
2023-09-12T13:47:24.134Z,30.33
2023-09-12T13:49:54.574Z,30.36
2023-09-12T13:52:22.292Z,30.41
2023-09-12T13:54:48.958Z,30.51
2023-09-12T13:57:17.010Z,30.49
2023-09-12T13:59:47.022Z,30.08
2023-09-12T14:02:14.175Z,29.81
2023-09-12T14:04:41.972Z,29.71
2023-09-12T14:07:11.626Z,29.73
2023-09-12T14:09:39.991Z,29.76
2023-09-12T14:12:18.571Z,29.88
2023-09-12T14:15:01.465Z,29.83
2023-09-12T14:17:31.734Z,29.79
2023-09-12T14:19:58.658Z,29.69
2023-09-12T14:22:28.260Z,29.46
2023-09-12T14:24:55.119Z,29.54
2023-09-12T14:27:26.844Z,29.45
2023-09-12T14:29:54.008Z,29.59
2023-09-12T14:32:21.474Z,29.68
2023-09-12T14:34:47.949Z,29.99
2023-09-12T14:37:14.524Z,29.78
2023-09-12T14:39:41.091Z,29.99
2023-09-12T14:42:09.904Z,29.96
2023-09-12T14:44:36.766Z,30.06
2023-09-12T14:47:03.566Z,29.88
2023-09-12T14:49:40.003Z,29.77
2023-09-12T14:52:21.035Z,29.70
2023-09-12T14:54:48.438Z,29.74
2023-09-12T14:57:14.933Z,29.62
2023-09-12T14:59:41.382Z,29.78
2023-09-12T15:02:08.017Z,29.62
2023-09-12T15:04:34.610Z,29.82
2023-09-12T15:07:01.166Z,29.88
2023-09-12T15:09:28.445Z,29.64
2023-09-12T15:11:55.000Z,29.63
2023-09-12T15:14:22.480Z,29.48
2023-09-12T15:16:49.332Z,29.69
2023-09-12T15:19:16.096Z,29.63
2023-09-12T15:21:42.742Z,29.50
2023-09-12T15:24:09.809Z,29.40
2023-09-12T15:26:36.308Z,29.27
2023-09-12T15:29:05.114Z,29.19
2023-09-12T15:31:33.312Z,28.97
2023-09-12T15:33:59.953Z,28.89
2023-09-12T15:36:26.599Z,28.86
2023-09-12T15:38:53.247Z,28.81
2023-09-12T15:41:19.925Z,28.78
2023-09-12T15:43:46.870Z,28.69
2023-09-12T15:46:27.791Z,28.66
2023-09-12T15:49:00.861Z,28.56
2023-09-12T15:51:27.651Z,28.64
2023-09-12T15:53:56.447Z,28.63
2023-09-12T15:56:23.032Z,28.55
2023-09-12T15:58:49.723Z,28.46
2023-09-12T16:01:16.269Z,28.45
2023-09-12T16:03:43.346Z,28.44
2023-09-12T16:06:10.316Z,28.42
2023-09-12T16:08:36.899Z,28.19
2023-09-12T16:11:03.370Z,28.17
2023-09-12T16:13:30.013Z,28.06
2023-09-12T16:15:56.529Z,28.12
2023-09-12T16:18:23.599Z,28.02
2023-09-12T16:20:50.122Z,27.91
2023-09-12T16:23:16.801Z,27.83
2023-09-12T16:25:43.288Z,27.70
2023-09-12T16:28:09.791Z,27.71
2023-09-12T16:30:40.195Z,27.64
2023-09-12T16:33:07.453Z,27.52
2023-09-12T16:35:33.961Z,27.29
2023-09-12T16:38:00.539Z,27.12
2023-09-12T16:40:27.079Z,26.89
2023-09-12T16:42:53.606Z,26.55
2023-09-12T16:45:20.219Z,26.40
2023-09-12T16:47:46.832Z,26.23
2023-09-12T16:50:13.378Z,26.14
2023-09-12T16:52:43.024Z,26.06
2023-09-12T16:55:11.860Z,25.73
2023-09-12T16:57:38.446Z,25.62
2023-09-12T17:00:06.427Z,25.53
2023-09-12T17:02:36.324Z,25.41
2023-09-12T17:05:04.928Z,25.43
2023-09-12T17:07:34.647Z,25.43
2023-09-12T17:10:01.210Z,24.78
2023-09-12T17:12:30.790Z,23.94
2023-09-12T17:14:57.351Z,23.38
2023-09-12T17:17:25.658Z,22.76
2023-09-12T17:19:52.242Z,22.44
2023-09-12T17:22:18.810Z,22.06
2023-09-12T17:24:50.168Z,21.79
2023-09-12T17:27:41.240Z,21.47
2023-09-12T17:30:17.996Z,21.79
2023-09-12T17:32:44.764Z,21.76
2023-09-12T17:35:11.402Z,21.70
2023-09-12T17:37:51.828Z,21.93
2023-09-12T17:40:35.842Z,22.11
2023-09-12T17:43:08.122Z,22.36
2023-09-12T17:45:36.114Z,22.48
2023-09-12T17:48:05.574Z,22.46
2023-09-12T17:50:34.712Z,22.15
2023-09-12T17:53:02.142Z,21.66
2023-09-12T17:55:29.033Z,21.64
2023-09-12T17:57:55.770Z,21.61
2023-09-12T18:00:28.390Z,21.51
2023-09-12T18:02:55.167Z,21.64
2023-09-12T18:05:21.727Z,21.85
2023-09-12T18:07:48.219Z,22.01
2023-09-12T18:10:14.768Z,22.12
2023-09-12T18:12:42.989Z,22.18
2023-09-12T18:15:22.585Z,22.13
2023-09-12T18:17:49.069Z,21.94
2023-09-12T18:20:24.871Z,21.91
2023-09-12T18:23:06.294Z,21.78
2023-09-12T18:25:39.945Z,22.11
2023-09-12T18:28:17.522Z,22.01
2023-09-12T18:30:50.142Z,21.89
2023-09-12T18:33:34.134Z,21.97
2023-09-12T18:36:32.895Z,21.87
2023-09-12T18:38:59.498Z,21.73
2023-09-12T18:41:26.041Z,21.38
2023-09-12T18:44:07.912Z,21.09
2023-09-12T18:46:47.669Z,21.19
2023-09-12T18:49:21.557Z,21.38
2023-09-12T18:51:49.836Z,21.22
2023-09-12T18:55:14.847Z,21.35
2023-09-12T18:58:07.913Z,21.63
2023-09-12T19:03:44.865Z,21.62
2023-09-12T19:06:25.372Z,21.57
2023-09-12T19:08:52.380Z,21.23
2023-09-12T19:19:56.566Z,21.64
2023-09-12T19:22:32.927Z,21.70
2023-09-12T19:28:13.920Z,21.36
2023-09-12T19:31:01.643Z,21.46
2023-09-12T19:33:41.477Z,21.14
2023-09-12T19:36:21.401Z,21.15
2023-09-12T19:39:05.707Z,20.98
2023-09-12T19:41:43.993Z,21.04
2023-09-12T19:44:58.721Z,20.81
2023-09-12T19:47:46.217Z,20.98
2023-09-12T19:53:55.742Z,20.97
2023-09-12T19:56:49.415Z,21.08
2023-09-12T19:59:20.221Z,21.11
2023-09-12T20:02:25.358Z,21.31
2023-09-12T20:05:10.002Z,21.35
2023-09-12T20:07:58.220Z,21.31
2023-09-12T20:10:30.334Z,21.17
2023-09-12T20:13:06.101Z,20.98
2023-09-12T20:15:36.851Z,21.07
2023-09-12T20:18:24.785Z,21.19
2023-09-12T20:21:00.006Z,21.24
2023-09-12T20:23:30.347Z,21.19
2023-09-12T20:26:13.791Z,21.27
2023-09-12T20:28:40.446Z,21.30
2023-09-12T20:31:12.061Z,21.25
2023-09-12T20:33:46.964Z,21.09
2023-09-12T20:36:16.883Z,20.99
2023-09-12T20:39:03.496Z,21.02
2023-09-12T20:41:35.619Z,20.98
2023-09-12T20:44:02.179Z,20.71
2023-09-12T20:46:36.589Z,20.75
2023-09-12T20:49:08.256Z,20.69
2023-09-12T20:51:50.060Z,20.86
2023-09-12T20:54:23.874Z,20.79
2023-09-12T20:56:56.556Z,20.82
2023-09-12T20:59:31.431Z,20.79
2023-09-12T21:02:15.902Z,20.87
2023-09-12T21:04:49.726Z,20.72
2023-09-12T21:07:32.318Z,20.64
2023-09-12T21:10:10.752Z,20.67
2023-09-12T21:13:11.349Z,20.57
2023-09-12T21:15:55.582Z,20.64
2023-09-12T21:18:27.757Z,20.56
2023-09-12T21:21:05.359Z,20.46
2023-09-12T21:23:38.060Z,20.39
2023-09-12T21:26:22.700Z,20.43
2023-09-12T21:29:13.155Z,20.51
2023-09-12T21:31:48.448Z,20.60
2023-09-12T21:34:48.830Z,20.54
2023-09-12T21:37:20.207Z,20.58
2023-09-12T21:40:12.434Z,20.63
2023-09-12T21:42:57.393Z,20.36
2023-09-12T21:45:39.616Z,20.35
2023-09-12T21:48:20.274Z,20.09
2023-09-12T21:51:19.655Z,20.23
2023-09-12T21:54:06.601Z,20.10
2023-09-12T21:57:04.495Z,20.23
2023-09-12T22:02:56.923Z,20.32
2023-09-12T22:05:58.575Z,20.28
2023-09-12T22:08:38.290Z,20.26
2023-09-12T22:11:25.583Z,20.10
2023-09-12T22:14:08.607Z,19.97
2023-09-12T22:16:47.927Z,20.00
2023-09-12T22:22:32.975Z,19.82
2023-09-12T22:25:27.621Z,19.70
2023-09-12T22:28:07.659Z,19.63
2023-09-12T22:30:49.214Z,19.64
2023-09-12T22:33:18.504Z,19.66
2023-09-12T22:36:19.543Z,19.67
2023-09-12T22:38:57.043Z,19.61
2023-09-12T22:41:25.966Z,19.61
2023-09-12T22:43:59.700Z,19.52
2023-09-12T22:46:35.497Z,19.42
2023-09-12T22:49:30.430Z,19.46
2023-09-12T22:51:57.129Z,19.50
2023-09-12T22:54:24.061Z,19.60
2023-09-12T22:57:00.484Z,19.48
2023-09-12T22:59:32.945Z,19.38
2023-09-12T23:02:08.888Z,19.30
2023-09-12T23:04:53.485Z,19.38
2023-09-12T23:07:28.400Z,19.47
2023-09-12T23:10:12.598Z,19.53
2023-09-12T23:12:40.895Z,19.51
2023-09-12T23:15:12.939Z,19.32
2023-09-12T23:17:48.872Z,19.52
2023-09-12T23:20:35.383Z,19.59
2023-09-12T23:23:06.252Z,19.58
2023-09-12T23:25:47.096Z,19.40
2023-09-12T23:28:40.238Z,19.57
2023-09-12T23:31:12.947Z,19.69
2023-09-12T23:33:42.696Z,19.50
2023-09-12T23:36:15.608Z,19.27
2023-09-12T23:39:14.503Z,19.07
2023-09-12T23:41:48.245Z,19.14
2023-09-12T23:44:34.306Z,19.36
2023-09-12T23:47:01.335Z,19.44
2023-09-12T23:49:42.886Z,19.52
2023-09-12T23:52:14.823Z,19.57
2023-09-12T23:54:44.041Z,19.46
2023-09-12T23:57:11.060Z,19.59
2023-09-12T23:59:43.387Z,19.65
